createdAt,value
2022-12-23T00:00:30.717Z,53.70
2022-12-23T00:03:19.209Z,51.40
2022-12-23T00:05:47.529Z,46.60
2022-12-23T00:08:15.891Z,46.20
2022-12-23T00:10:44.807Z,45.40
2022-12-23T00:13:31.663Z,46.00
2022-12-23T00:16:07.210Z,46.70
2022-12-23T00:18:35.957Z,46.40
2022-12-23T00:21:09.140Z,48.70
2022-12-23T00:23:40.189Z,50.60
2022-12-23T00:26:14.141Z,49.30
2022-12-23T00:28:42.460Z,52.80
2022-12-23T00:31:11.711Z,53.30
2022-12-23T00:33:43.729Z,55.20
2022-12-23T00:36:13.158Z,55.50
2022-12-23T00:38:59.881Z,52.40
2022-12-23T00:41:47.025Z,57.80
2022-12-23T00:44:15.840Z,55.60
2022-12-23T00:46:44.419Z,55.50
2022-12-23T00:49:32.664Z,56.70
2022-12-23T00:52:00.969Z,56.80
2022-12-23T00:54:29.380Z,55.60
2022-12-23T00:56:58.007Z,58.00
2022-12-23T00:59:26.014Z,54.40
2022-12-23T01:02:12.803Z,46.00
2022-12-23T01:04:59.404Z,51.50
2022-12-23T01:07:27.544Z,49.70
2022-12-23T01:09:55.797Z,49.80
2022-12-23T01:12:23.882Z,44.70
2022-12-23T01:14:52.061Z,48.20
2022-12-23T01:17:20.400Z,44.40
2022-12-23T01:19:48.589Z,49.00
2022-12-23T01:22:16.801Z,47.60
2022-12-23T01:24:44.894Z,48.40
2022-12-23T01:27:13.136Z,49.10
2022-12-23T01:29:41.234Z,48.70
2022-12-23T01:32:09.379Z,49.70
2022-12-23T01:34:37.887Z,50.20
2022-12-23T01:37:06.427Z,51.30
2022-12-23T01:39:34.548Z,52.10
2022-12-23T01:42:21.358Z,54.20
2022-12-23T01:45:00.920Z,53.40
2022-12-23T01:47:54.255Z,53.70
2022-12-23T01:50:38.728Z,56.10
2022-12-23T01:53:13.701Z,56.50
2022-12-23T01:56:05.799Z,58.90
2022-12-23T01:58:38.667Z,55.10
2022-12-23T02:01:26.934Z,56.30
2022-12-23T02:03:59.728Z,54.10
2022-12-23T02:06:52.227Z,51.10
2022-12-23T02:09:24.689Z,53.20
2022-12-23T02:12:21.691Z,53.00
2022-12-23T02:15:11.772Z,54.40
2022-12-23T02:18:05.738Z,58.30
2022-12-23T02:21:03.437Z,62.70
2022-12-23T02:24:16.309Z,59.40
2022-12-23T02:26:53.357Z,55.20
2022-12-23T02:29:40.184Z,60.40
2022-12-23T02:32:23.587Z,63.30
2022-12-23T02:35:27.860Z,63.90
2022-12-23T02:38:01.318Z,61.40
2022-12-23T02:40:58.204Z,66.10
2022-12-23T02:43:48.102Z,63.50
2022-12-23T02:46:30.971Z,65.60
2022-12-23T02:48:59.140Z,61.60
2022-12-23T02:51:32.960Z,62.50
2022-12-23T02:54:05.731Z,64.10
2022-12-23T02:56:37.362Z,64.00
2022-12-23T02:59:16.391Z,63.90
2022-12-23T03:01:46.024Z,64.40
2022-12-23T03:04:15.091Z,56.00
2022-12-23T03:06:50.237Z,59.40
2022-12-23T03:12:40.795Z,58.80
2022-12-23T03:15:17.889Z,57.60
2022-12-23T03:18:21.812Z,55.30
2022-12-23T03:21:18.263Z,54.70
2022-12-23T03:23:55.979Z,53.20
2022-12-23T03:26:38.221Z,54.50
2022-12-23T03:29:19.734Z,57.10
2022-12-23T03:31:49.927Z,58.70
2022-12-23T03:34:25.297Z,56.80
2022-12-23T03:36:58.119Z,56.30
2022-12-23T03:39:32.483Z,58.90
2022-12-23T03:42:13.904Z,57.60
2022-12-23T03:45:10.797Z,57.40
2022-12-23T03:47:45.603Z,58.20
2022-12-23T03:50:17.165Z,57.20
2022-12-23T03:53:12.378Z,59.80
2022-12-23T03:55:54.336Z,59.50
2022-12-23T03:58:29.217Z,60.30
2022-12-23T04:01:08.293Z,57.20
2022-12-23T04:03:42.162Z,57.00
2022-12-23T04:06:14.645Z,59.40
2022-12-23T04:08:45.017Z,61.80
2022-12-23T04:11:14.138Z,59.30
2022-12-23T04:13:42.470Z,58.00
2022-12-23T04:16:11.035Z,55.80
2022-12-23T04:18:39.083Z,55.30
2022-12-23T04:21:07.328Z,52.60
2022-12-23T04:23:35.411Z,52.30
2022-12-23T04:26:03.494Z,52.40
2022-12-23T04:28:31.580Z,49.80
2022-12-23T04:30:59.996Z,49.30
2022-12-23T04:33:28.362Z,54.30
2022-12-23T04:35:56.472Z,54.20
2022-12-23T04:38:24.661Z,52.30
2022-12-23T04:40:52.695Z,52.70
2022-12-23T04:43:20.893Z,55.30
2022-12-23T04:45:52.921Z,56.50
2022-12-23T04:48:21.232Z,56.30
2022-12-23T04:50:49.432Z,54.40
2022-12-23T04:53:17.465Z,54.90
2022-12-23T04:55:51.291Z,58.00
2022-12-23T04:58:22.365Z,57.50
2022-12-23T05:00:50.794Z,55.90
2022-12-23T05:03:19.089Z,56.80
2022-12-23T05:05:47.359Z,55.40
2022-12-23T05:08:15.386Z,52.50
2022-12-23T05:10:45.733Z,53.00
2022-12-23T05:13:13.838Z,53.60
2022-12-23T05:15:45.436Z,50.30
2022-12-23T05:18:13.394Z,51.10
2022-12-23T05:20:41.504Z,48.50
2022-12-23T05:23:09.884Z,48.90
2022-12-23T05:25:39.537Z,48.10
2022-12-23T05:28:08.261Z,48.80
2022-12-23T05:30:36.758Z,51.90
2022-12-23T05:33:04.890Z,52.30
2022-12-23T05:35:33.117Z,51.80
2022-12-23T05:38:03.367Z,53.40
2022-12-23T05:40:33.187Z,54.10
2022-12-23T05:43:02.504Z,53.60
2022-12-23T05:45:30.853Z,56.20
2022-12-23T05:47:59.207Z,58.30
2022-12-23T05:50:27.450Z,53.70
2022-12-23T05:52:58.400Z,51.60
2022-12-23T05:55:27.356Z,56.30
2022-12-23T05:57:55.564Z,57.20
2022-12-23T06:00:24.152Z,59.00
2022-12-23T06:02:54.168Z,56.20
2022-12-23T06:05:22.915Z,58.40
2022-12-23T06:07:51.240Z,58.00
2022-12-23T06:10:19.840Z,55.90
2022-12-23T06:12:47.982Z,55.20
2022-12-23T06:15:16.503Z,52.80
2022-12-23T06:17:44.653Z,53.10
2022-12-23T06:20:20.018Z,48.90
2022-12-23T06:22:49.040Z,50.60
2022-12-23T06:25:17.151Z,50.80
2022-12-23T06:27:45.360Z,50.30
2022-12-23T06:30:14.508Z,49.70
2022-12-23T06:32:42.849Z,52.70
2022-12-23T06:35:10.965Z,49.70
2022-12-23T06:37:39.009Z,53.90
2022-12-23T06:40:07.557Z,53.20
2022-12-23T06:42:35.808Z,55.90
2022-12-23T06:45:04.342Z,57.70
2022-12-23T06:47:32.530Z,58.90
2022-12-23T06:50:00.599Z,57.80
2022-12-23T06:52:28.946Z,56.10
2022-12-23T06:54:57.327Z,57.80
2022-12-23T06:57:28.916Z,58.50
2022-12-23T06:59:57.928Z,58.00
2022-12-23T07:02:26.271Z,59.50
2022-12-23T07:04:54.532Z,57.30
2022-12-23T07:07:22.681Z,61.10
2022-12-23T07:09:50.701Z,63.10
2022-12-23T07:12:19.617Z,57.80
2022-12-23T07:14:47.777Z,55.70
2022-12-23T07:17:15.995Z,59.80
2022-12-23T07:19:44.304Z,53.50
2022-12-23T07:22:12.480Z,55.30
2022-12-23T07:24:40.714Z,53.20
2022-12-23T07:27:09.700Z,50.20
2022-12-23T07:29:37.649Z,50.90
2022-12-23T07:32:05.921Z,54.10
2022-12-23T07:34:34.374Z,58.40
2022-12-23T07:37:02.673Z,54.80
2022-12-23T07:39:30.931Z,57.60
2022-12-23T07:42:25.078Z,54.10
2022-12-23T07:44:47.719Z,59.70
2022-12-23T07:47:16.024Z,61.00
2022-12-23T07:49:44.405Z,57.30
2022-12-23T07:52:12.909Z,63.10
2022-12-23T07:54:43.543Z,64.20
2022-12-23T07:57:15.551Z,62.50
2022-12-23T07:59:43.919Z,70.30
2022-12-23T08:02:12.519Z,60.90
2022-12-23T08:04:46.113Z,63.10
2022-12-23T08:07:15.246Z,57.20
2022-12-23T08:09:43.718Z,53.30
2022-12-23T08:12:12.306Z,50.40
2022-12-23T08:14:40.546Z,55.50
2022-12-23T08:17:09.706Z,55.20
2022-12-23T08:19:38.396Z,53.70
2022-12-23T08:22:07.210Z,58.20
2022-12-23T08:24:35.409Z,60.10
2022-12-23T08:27:03.815Z,59.10
2022-12-23T08:29:36.267Z,66.10
2022-12-23T08:32:05.718Z,65.00
2022-12-23T08:34:34.384Z,66.80
2022-12-23T08:37:03.585Z,63.30
2022-12-23T08:39:32.147Z,63.40
2022-12-23T08:42:00.752Z,60.10
2022-12-23T08:44:29.926Z,50.20
2022-12-23T08:46:58.485Z,57.30
2022-12-23T08:49:27.079Z,48.70
2022-12-23T08:51:55.373Z,48.10
2022-12-23T08:54:25.326Z,56.20
2022-12-23T08:56:53.776Z,53.40
2022-12-23T08:59:21.840Z,58.60
2022-12-23T09:01:50.429Z,60.80
2022-12-23T09:04:18.914Z,59.80
2022-12-23T09:06:47.051Z,55.60
2022-12-23T09:09:16.409Z,52.70
2022-12-23T09:11:44.865Z,59.70
2022-12-23T09:14:13.048Z,57.30
2022-12-23T09:16:41.364Z,62.40
2022-12-23T09:19:09.943Z,61.80
2022-12-23T09:21:38.172Z,60.30
2022-12-23T09:24:06.678Z,58.40
2022-12-23T09:26:34.897Z,55.90
2022-12-23T09:29:03.046Z,55.40
2022-12-23T09:31:36.600Z,56.10
2022-12-23T09:34:06.183Z,50.30
2022-12-23T09:36:35.006Z,50.40
2022-12-23T09:39:04.128Z,52.00
2022-12-23T09:41:42.981Z,56.00
2022-12-23T09:44:45.872Z,53.50
2022-12-23T09:47:22.239Z,50.10
2022-12-23T09:49:56.913Z,55.30
2022-12-23T09:53:17.775Z,52.40
2022-12-23T09:55:55.284Z,58.70
2022-12-23T09:58:36.663Z,59.20
2022-12-23T10:01:20.065Z,58.40
2022-12-23T10:03:52.766Z,52.20
2022-12-23T10:06:27.924Z,57.20
2022-12-23T10:09:02.791Z,53.60
2022-12-23T10:11:47.251Z,47.20
2022-12-23T10:14:21.125Z,51.50
2022-12-23T10:16:58.069Z,55.50
2022-12-23T10:19:28.984Z,53.30
2022-12-23T10:22:10.630Z,59.10
2022-12-23T10:24:42.031Z,60.40
2022-12-23T10:27:22.346Z,62.40
2022-12-23T10:29:50.570Z,64.90
2022-12-23T10:32:31.467Z,63.10
2022-12-23T10:35:35.761Z,65.10
2022-12-23T10:38:19.972Z,58.60
2022-12-23T10:41:32.982Z,43.70
2022-12-23T10:44:22.975Z,51.00
2022-12-23T10:47:16.708Z,53.10
2022-12-23T10:50:14.487Z,51.70
2022-12-23T10:52:45.607Z,55.00
2022-12-23T10:55:36.298Z,56.10
2022-12-23T10:58:15.719Z,56.00
2022-12-23T11:00:53.796Z,54.00
2022-12-23T11:03:26.579Z,52.20
2022-12-23T11:05:57.606Z,55.30
2022-12-23T11:08:29.578Z,52.90
2022-12-23T11:11:01.169Z,33.60
2022-12-23T11:13:32.524Z,47.70
2022-12-23T11:16:21.856Z,32.60
2022-12-23T11:18:55.016Z,44.70
2022-12-23T11:21:23.721Z,46.50
2022-12-23T11:24:18.301Z,53.00
2022-12-23T11:26:51.778Z,51.00
2022-12-23T11:29:36.938Z,46.10
2022-12-23T11:32:17.806Z,48.60
2022-12-23T11:34:48.393Z,28.10
2022-12-23T11:37:40.934Z,36.60
2022-12-23T11:40:25.437Z,45.30
2022-12-23T11:43:03.508Z,44.80
2022-12-23T11:45:38.003Z,45.40
2022-12-23T11:48:26.231Z,42.30
2022-12-23T11:51:04.013Z,43.90
2022-12-23T11:53:32.833Z,43.80
2022-12-23T11:56:04.794Z,46.50
2022-12-23T11:58:59.837Z,49.60
2022-12-23T12:01:29.024Z,49.60
2022-12-23T12:04:03.984Z,49.00
2022-12-23T12:06:34.042Z,43.00
2022-12-23T12:09:05.709Z,41.00
2022-12-23T12:11:48.309Z,44.40
2022-12-23T12:14:23.310Z,39.50
2022-12-23T12:17:00.881Z,44.90
2022-12-23T12:19:36.117Z,44.90
2022-12-23T12:22:15.003Z,39.10
2022-12-23T12:24:50.805Z,49.30
2022-12-23T12:27:22.900Z,46.30
2022-12-23T12:29:56.261Z,49.10
2022-12-23T12:32:41.245Z,45.90
2022-12-23T12:35:22.304Z,44.00
2022-12-23T12:38:01.910Z,44.40
2022-12-23T12:40:41.231Z,43.60
2022-12-23T12:43:32.825Z,44.50
2022-12-23T12:46:33.279Z,42.30
2022-12-23T12:49:05.018Z,38.10
2022-12-23T12:51:46.942Z,39.20
2022-12-23T12:54:30.542Z,40.50
2022-12-23T12:56:59.948Z,42.30
2022-12-23T12:59:39.274Z,44.30
2022-12-23T13:02:42.600Z,43.80
2022-12-23T13:05:30.270Z,45.30
2022-12-23T13:08:21.967Z,49.50
2022-12-23T13:10:56.660Z,47.50
2022-12-23T13:14:02.274Z,40.60
2022-12-23T13:16:44.152Z,37.10
2022-12-23T13:19:44.655Z,39.00
2022-12-23T13:22:17.748Z,39.00
2022-12-23T13:25:22.596Z,41.60
2022-12-23T13:28:12.085Z,42.50
2022-12-23T13:30:48.585Z,40.60
2022-12-23T13:33:21.253Z,46.10
2022-12-23T13:36:14.628Z,47.40
2022-12-23T13:39:18.802Z,48.70
2022-12-23T13:41:53.701Z,52.20
2022-12-23T13:44:23.133Z,50.40
2022-12-23T13:47:06.755Z,49.40
2022-12-23T13:49:53.352Z,49.20
2022-12-23T13:52:56.932Z,45.70
2022-12-23T13:55:36.616Z,44.90
2022-12-23T13:58:13.565Z,42.80
2022-12-23T14:00:42.433Z,43.40
2022-12-23T14:03:12.800Z,40.20
2022-12-23T14:05:45.336Z,40.50
2022-12-23T14:08:19.586Z,43.70
2022-12-23T14:11:00.380Z,45.00
2022-12-23T14:13:42.327Z,42.10
2022-12-23T14:16:37.813Z,45.10
2022-12-23T14:19:51.940Z,47.30
2022-12-23T14:22:53.886Z,47.50
2022-12-23T14:25:47.483Z,47.10
2022-12-23T14:28:44.059Z,49.10
2022-12-23T14:31:34.671Z,46.70
2022-12-23T14:34:06.554Z,45.30
2022-12-23T14:36:35.271Z,44.90
2022-12-23T14:39:12.718Z,42.20
2022-12-23T14:41:53.662Z,41.90
2022-12-23T14:44:37.324Z,38.90
2022-12-23T14:47:25.880Z,40.90
2022-12-23T14:49:54.585Z,44.70
2022-12-23T14:52:38.068Z,45.40
2022-12-23T14:55:31.693Z,43.40
2022-12-23T14:58:15.323Z,42.90
2022-12-23T15:00:50.879Z,46.50
2022-12-23T15:03:20.772Z,46.70
2022-12-23T15:05:51.216Z,50.20
2022-12-23T15:08:31.236Z,46.00
2022-12-23T15:10:59.867Z,45.30
2022-12-23T15:13:30.363Z,50.40
2022-12-23T15:16:01.686Z,51.10
2022-12-23T15:18:30.346Z,47.50
2022-12-23T15:21:04.075Z,43.40
2022-12-23T15:23:33.379Z,48.00
2022-12-23T15:26:02.653Z,47.70
2022-12-23T15:28:39.511Z,45.40
2022-12-23T15:31:25.657Z,49.90
2022-12-23T15:34:04.125Z,45.80
2022-12-23T15:36:37.772Z,44.20
2022-12-23T15:39:18.914Z,44.40
2022-12-23T15:41:48.690Z,47.90
2022-12-23T15:44:23.338Z,48.30
2022-12-23T15:46:52.292Z,50.50
2022-12-23T15:49:21.962Z,47.10
2022-12-23T15:52:07.843Z,49.70
2022-12-23T15:54:45.170Z,51.70
2022-12-23T15:57:19.842Z,43.60
2022-12-23T15:59:48.928Z,52.90
2022-12-23T16:05:30.575Z,47.40
2022-12-23T16:08:30.470Z,42.70
2022-12-23T16:11:16.157Z,48.30
2022-12-23T16:13:59.193Z,50.50
2022-12-23T16:16:34.195Z,41.00
2022-12-23T16:19:02.694Z,48.60
2022-12-23T16:21:34.732Z,48.70
2022-12-23T16:24:08.495Z,49.20
2022-12-23T16:26:42.751Z,48.00
2022-12-23T16:29:13.070Z,50.40
2022-12-23T16:31:47.864Z,49.60
2022-12-23T16:34:19.997Z,49.10
2022-12-23T16:36:48.164Z,49.00
2022-12-23T16:39:22.627Z,50.00
2022-12-23T16:41:51.222Z,51.30
2022-12-23T16:44:19.240Z,51.60
2022-12-23T16:46:49.697Z,52.00
2022-12-23T16:49:20.735Z,53.60
2022-12-23T16:51:49.416Z,49.60
2022-12-23T16:54:20.258Z,49.60
2022-12-23T16:56:51.600Z,50.90
2022-12-23T16:59:22.903Z,57.90
2022-12-23T17:01:53.674Z,56.90
2022-12-23T17:04:24.070Z,59.90
2022-12-23T17:06:52.329Z,55.60
2022-12-23T17:09:21.163Z,50.10
2022-12-23T17:11:53.184Z,53.20
2022-12-23T17:14:24.865Z,46.60
2022-12-23T17:16:53.738Z,47.40
2022-12-23T17:19:28.677Z,43.50
2022-12-23T17:22:02.201Z,42.50
2022-12-23T17:24:30.573Z,43.50
2022-12-23T17:26:59.075Z,43.40
2022-12-23T17:29:28.407Z,39.70
2022-12-23T17:31:56.642Z,41.70
2022-12-23T17:34:25.003Z,43.80
2022-12-23T17:36:53.589Z,42.00
2022-12-23T17:39:22.852Z,48.20
2022-12-23T17:41:51.908Z,49.70
2022-12-23T17:44:20.187Z,48.00
2022-12-23T17:46:48.615Z,43.60
2022-12-23T17:49:17.403Z,45.80
2022-12-23T17:51:45.950Z,46.20
2022-12-23T17:54:25.125Z,44.10
2022-12-23T17:56:53.888Z,43.40
2022-12-23T17:59:22.064Z,44.70
2022-12-23T18:01:50.512Z,44.70
2022-12-23T18:04:18.880Z,41.20
2022-12-23T18:06:47.166Z,44.60
2022-12-23T18:09:15.298Z,42.40
2022-12-23T18:11:45.931Z,47.20
2022-12-23T18:14:24.005Z,47.00
2022-12-23T18:16:52.512Z,47.80
2022-12-23T18:19:21.896Z,49.80
2022-12-23T18:21:51.690Z,49.30
2022-12-23T18:24:19.840Z,45.90
2022-12-23T18:26:48.171Z,45.60
2022-12-23T18:29:16.439Z,50.40
2022-12-23T18:31:51.428Z,49.90
2022-12-23T18:34:21.136Z,48.40
2022-12-23T18:36:52.076Z,46.20
2022-12-23T18:39:21.313Z,46.20
2022-12-23T18:41:49.555Z,43.40
2022-12-23T18:44:21.828Z,44.10
2022-12-23T18:46:50.790Z,39.50
2022-12-23T18:49:19.600Z,43.60
2022-12-23T18:51:48.035Z,42.20
2022-12-23T18:54:16.993Z,39.00
2022-12-23T18:56:45.646Z,42.70
2022-12-23T18:59:24.316Z,45.80
2022-12-23T19:01:58.325Z,46.20
2022-12-23T19:04:27.934Z,45.00
2022-12-23T19:06:57.736Z,54.30
2022-12-23T19:09:26.508Z,51.90
2022-12-23T19:11:54.901Z,49.80
2022-12-23T19:14:23.395Z,55.20
2022-12-23T19:16:52.700Z,54.80
2022-12-23T19:19:22.183Z,55.10
2022-12-23T19:21:50.427Z,52.80
2022-12-23T19:24:18.534Z,52.40
2022-12-23T19:26:47.071Z,54.50
2022-12-23T19:29:15.437Z,53.00
2022-12-23T19:31:43.625Z,54.60
2022-12-23T19:34:15.355Z,51.10
2022-12-23T19:36:44.705Z,53.30
2022-12-23T19:39:16.989Z,49.80
2022-12-23T19:41:45.778Z,48.20
2022-12-23T19:44:14.886Z,46.80
2022-12-23T19:46:43.449Z,46.00
2022-12-23T19:49:19.177Z,40.80
2022-12-23T19:51:49.518Z,46.20
2022-12-23T19:54:19.308Z,40.00
2022-12-23T19:56:51.406Z,46.50
2022-12-23T19:59:20.165Z,47.10
2022-12-23T20:01:49.060Z,49.80
2022-12-23T20:04:17.721Z,45.80
2022-12-23T20:06:46.270Z,47.20
2022-12-23T20:09:14.368Z,52.20
2022-12-23T20:11:45.653Z,49.60
2022-12-23T20:14:15.952Z,54.10
2022-12-23T20:16:44.563Z,52.10
2022-12-23T20:19:12.819Z,51.80
2022-12-23T20:21:41.007Z,50.50
2022-12-23T20:24:09.739Z,47.80
2022-12-23T20:26:39.365Z,51.60
2022-12-23T20:29:08.651Z,49.30
2022-12-23T20:31:38.677Z,50.40
2022-12-23T20:34:10.790Z,48.20
2022-12-23T20:36:39.158Z,47.30
2022-12-23T20:39:07.818Z,47.50
2022-12-23T20:41:36.055Z,46.30
2022-12-23T20:46:52.677Z,46.80
2022-12-23T20:49:21.079Z,47.50
2022-12-23T20:51:49.448Z,47.40
2022-12-23T20:54:17.939Z,50.10
2022-12-23T20:56:46.552Z,51.20
2022-12-23T20:59:14.857Z,49.90
2022-12-23T21:01:43.409Z,50.20
2022-12-23T21:04:18.373Z,51.70
2022-12-23T21:06:46.531Z,49.60
2022-12-23T21:09:15.615Z,52.40
2022-12-23T21:11:45.920Z,56.90
2022-12-23T21:14:15.478Z,50.60
2022-12-23T21:16:44.070Z,49.70
2022-12-23T21:19:21.698Z,51.30
2022-12-23T21:21:51.369Z,49.20
2022-12-23T21:24:20.977Z,46.20
2022-12-23T21:26:56.574Z,47.90
2022-12-23T21:29:25.948Z,48.00
2022-12-23T21:31:55.523Z,44.70
2022-12-23T21:34:24.180Z,46.90
2022-12-23T21:36:52.555Z,48.70
2022-12-23T21:39:20.968Z,52.80
2022-12-23T21:41:51.709Z,52.50
2022-12-23T21:44:20.015Z,51.50
2022-12-23T21:46:50.941Z,54.80
2022-12-23T21:49:21.408Z,54.00
2022-12-23T21:51:49.583Z,53.80
2022-12-23T21:54:17.683Z,53.70
2022-12-23T21:56:45.763Z,51.70
2022-12-23T21:59:15.033Z,50.50
2022-12-23T22:01:43.761Z,48.50
2022-12-23T22:04:11.935Z,47.20
2022-12-23T22:06:46.266Z,47.40
2022-12-23T22:09:19.000Z,50.30
2022-12-23T22:11:48.627Z,47.30
2022-12-23T22:14:19.802Z,49.10
2022-12-23T22:16:48.061Z,48.00
2022-12-23T22:19:16.418Z,47.80
2022-12-23T22:21:44.934Z,46.60
2022-12-23T22:24:13.196Z,44.50
2022-12-23T22:26:41.923Z,48.40
2022-12-23T22:29:10.793Z,49.80
2022-12-23T22:31:47.471Z,54.50
2022-12-23T22:34:19.192Z,53.30
2022-12-23T22:36:48.205Z,53.50
2022-12-23T22:39:21.086Z,53.00
2022-12-23T22:41:51.483Z,54.10
2022-12-23T22:44:20.983Z,54.70
2022-12-23T22:46:49.165Z,54.30
2022-12-23T22:49:17.578Z,53.70
2022-12-23T22:51:45.715Z,52.00
2022-12-23T22:54:14.343Z,50.50
2022-12-23T22:56:42.718Z,47.00
2022-12-23T22:59:19.480Z,49.50
2022-12-23T23:01:48.993Z,47.90
2022-12-23T23:04:17.567Z,48.40
2022-12-23T23:06:45.619Z,49.50
2022-12-23T23:09:18.320Z,47.50
2022-12-23T23:11:46.455Z,40.60
2022-12-23T23:14:14.960Z,49.00
2022-12-23T23:16:43.127Z,54.50
2022-12-23T23:19:12.093Z,46.00
2022-12-23T23:21:40.108Z,56.20
2022-12-23T23:24:08.650Z,56.20
2022-12-23T23:26:36.521Z,52.00
2022-12-23T23:29:04.960Z,56.80
2022-12-23T23:31:42.286Z,55.10
2022-12-23T23:34:12.066Z,51.60
2022-12-23T23:36:40.775Z,53.80
2022-12-23T23:39:11.335Z,55.40
2022-12-23T23:41:41.066Z,53.70
2022-12-23T23:44:09.375Z,51.70
2022-12-23T23:46:38.650Z,51.80
2022-12-23T23:49:06.742Z,51.30
2022-12-23T23:51:35.071Z,52.90
2022-12-23T23:54:03.703Z,51.70
2022-12-23T23:56:37.834Z,49.70
2022-12-23T23:59:09.083Z,50.50
